sensor_id;sensor_type;location;lat;lon;timestamp;P1;durP1;ratioP1;P2;durP2;ratioP2
64871;SDS011;51351;51.450;6.614;2024-03-06T00:01:04;24.42;;;16.80;;
64871;SDS011;51351;51.450;6.614;2024-03-06T00:03:29;25.17;;;17.02;;
64871;SDS011;51351;51.450;6.614;2024-03-06T00:05:54;25.02;;;17.20;;
64871;SDS011;51351;51.450;6.614;2024-03-06T00:08:19;24.63;;;16.33;;
64871;SDS011;51351;51.450;6.614;2024-03-06T00:10:45;25.75;;;14.70;;
64871;SDS011;51351;51.450;6.614;2024-03-06T00:13:10;29.27;;;17.80;;
64871;SDS011;51351;51.450;6.614;2024-03-06T00:15:35;24.75;;;17.20;;
64871;SDS011;51351;51.450;6.614;2024-03-06T00:18:01;23.77;;;15.90;;
64871;SDS011;51351;51.450;6.614;2024-03-06T00:20:27;22.60;;;14.95;;
64871;SDS011;51351;51.450;6.614;2024-03-06T00:22:53;24.27;;;17.88;;
64871;SDS011;51351;51.450;6.614;2024-03-06T00:25:18;24.90;;;16.40;;
64871;SDS011;51351;51.450;6.614;2024-03-06T00:27:44;21.20;;;16.08;;
64871;SDS011;51351;51.450;6.614;2024-03-06T00:30:09;26.15;;;16.10;;
64871;SDS011;51351;51.450;6.614;2024-03-06T00:32:35;23.42;;;16.20;;
64871;SDS011;51351;51.450;6.614;2024-03-06T00:35:01;26.43;;;16.70;;
64871;SDS011;51351;51.450;6.614;2024-03-06T00:37:26;23.75;;;17.05;;
64871;SDS011;51351;51.450;6.614;2024-03-06T00:39:51;23.98;;;14.85;;
64871;SDS011;51351;51.450;6.614;2024-03-06T00:42:17;23.15;;;15.70;;
64871;SDS011;51351;51.450;6.614;2024-03-06T00:44:42;24.98;;;16.08;;
64871;SDS011;51351;51.450;6.614;2024-03-06T00:47:07;25.83;;;16.07;;
64871;SDS011;51351;51.450;6.614;2024-03-06T00:49:33;26.03;;;16.43;;
64871;SDS011;51351;51.450;6.614;2024-03-06T00:51:58;23.60;;;14.47;;
64871;SDS011;51351;51.450;6.614;2024-03-06T00:54:23;22.57;;;15.60;;
64871;SDS011;51351;51.450;6.614;2024-03-06T00:56:49;28.88;;;16.88;;
64871;SDS011;51351;51.450;6.614;2024-03-06T00:59:14;23.45;;;14.95;;
64871;SDS011;51351;51.450;6.614;2024-03-06T01:01:39;25.20;;;16.77;;
64871;SDS011;51351;51.450;6.614;2024-03-06T01:04:04;22.08;;;16.05;;
64871;SDS011;51351;51.450;6.614;2024-03-06T01:06:30;25.98;;;17.00;;
64871;SDS011;51351;51.450;6.614;2024-03-06T01:08:55;26.98;;;18.27;;
64871;SDS011;51351;51.450;6.614;2024-03-06T01:11:22;24.27;;;16.73;;
64871;SDS011;51351;51.450;6.614;2024-03-06T01:13:47;23.45;;;15.32;;
64871;SDS011;51351;51.450;6.614;2024-03-06T01:16:12;23.57;;;16.00;;
64871;SDS011;51351;51.450;6.614;2024-03-06T01:18:38;27.20;;;15.60;;
64871;SDS011;51351;51.450;6.614;2024-03-06T01:21:03;24.87;;;15.90;;
64871;SDS011;51351;51.450;6.614;2024-03-06T01:23:28;22.63;;;14.70;;
64871;SDS011;51351;51.450;6.614;2024-03-06T01:25:54;22.60;;;14.82;;
64871;SDS011;51351;51.450;6.614;2024-03-06T01:28:19;25.90;;;15.45;;
64871;SDS011;51351;51.450;6.614;2024-03-06T01:30:45;24.77;;;15.38;;
64871;SDS011;51351;51.450;6.614;2024-03-06T01:33:10;22.57;;;14.93;;
64871;SDS011;51351;51.450;6.614;2024-03-06T01:35:36;24.90;;;15.82;;
64871;SDS011;51351;51.450;6.614;2024-03-06T01:38:01;21.58;;;15.60;;
64871;SDS011;51351;51.450;6.614;2024-03-06T01:40:26;26.15;;;16.23;;
64871;SDS011;51351;51.450;6.614;2024-03-06T01:42:53;21.67;;;13.75;;
64871;SDS011;51351;51.450;6.614;2024-03-06T01:45:20;21.05;;;15.35;;
64871;SDS011;51351;51.450;6.614;2024-03-06T01:47:45;25.58;;;15.57;;
64871;SDS011;51351;51.450;6.614;2024-03-06T01:50:10;20.87;;;13.87;;
64871;SDS011;51351;51.450;6.614;2024-03-06T01:52:36;22.67;;;14.85;;
64871;SDS011;51351;51.450;6.614;2024-03-06T01:55:02;25.73;;;14.88;;
64871;SDS011;51351;51.450;6.614;2024-03-06T01:57:29;26.17;;;17.13;;
64871;SDS011;51351;51.450;6.614;2024-03-06T01:59:54;25.27;;;15.35;;
64871;SDS011;51351;51.450;6.614;2024-03-06T02:02:20;23.88;;;15.45;;
64871;SDS011;51351;51.450;6.614;2024-03-06T02:04:45;21.90;;;17.33;;
64871;SDS011;51351;51.450;6.614;2024-03-06T02:07:11;27.63;;;15.43;;
64871;SDS011;51351;51.450;6.614;2024-03-06T02:09:38;27.80;;;17.85;;
64871;SDS011;51351;51.450;6.614;2024-03-06T02:12:04;21.83;;;15.93;;
64871;SDS011;51351;51.450;6.614;2024-03-06T02:14:29;24.83;;;17.33;;
64871;SDS011;51351;51.450;6.614;2024-03-06T02:16:55;21.50;;;14.93;;
64871;SDS011;51351;51.450;6.614;2024-03-06T02:19:20;24.63;;;17.08;;
64871;SDS011;51351;51.450;6.614;2024-03-06T02:21:45;25.20;;;16.85;;
64871;SDS011;51351;51.450;6.614;2024-03-06T02:24:11;26.58;;;15.63;;
64871;SDS011;51351;51.450;6.614;2024-03-06T02:26:38;24.67;;;15.70;;
64871;SDS011;51351;51.450;6.614;2024-03-06T02:29:03;29.40;;;19.77;;
64871;SDS011;51351;51.450;6.614;2024-03-06T02:31:31;24.23;;;16.55;;
64871;SDS011;51351;51.450;6.614;2024-03-06T02:33:56;25.77;;;14.90;;
64871;SDS011;51351;51.450;6.614;2024-03-06T02:36:23;23.15;;;16.30;;
64871;SDS011;51351;51.450;6.614;2024-03-06T02:38:49;24.38;;;15.95;;
64871;SDS011;51351;51.450;6.614;2024-03-06T02:41:14;24.05;;;16.10;;
64871;SDS011;51351;51.450;6.614;2024-03-06T02:43:41;28.48;;;15.93;;
64871;SDS011;51351;51.450;6.614;2024-03-06T02:46:06;21.90;;;14.43;;
64871;SDS011;51351;51.450;6.614;2024-03-06T02:48:32;25.30;;;16.93;;
64871;SDS011;51351;51.450;6.614;2024-03-06T02:50:57;27.50;;;17.95;;
64871;SDS011;51351;51.450;6.614;2024-03-06T02:53:22;27.33;;;18.15;;
64871;SDS011;51351;51.450;6.614;2024-03-06T02:55:48;22.48;;;15.50;;
64871;SDS011;51351;51.450;6.614;2024-03-06T02:58:14;22.42;;;14.65;;
64871;SDS011;51351;51.450;6.614;2024-03-06T03:00:39;25.55;;;16.38;;
64871;SDS011;51351;51.450;6.614;2024-03-06T03:03:06;26.48;;;14.43;;
64871;SDS011;51351;51.450;6.614;2024-03-06T03:05:31;23.02;;;16.35;;
64871;SDS011;51351;51.450;6.614;2024-03-06T03:07:58;25.85;;;16.85;;
64871;SDS011;51351;51.450;6.614;2024-03-06T03:10:24;27.95;;;18.98;;
64871;SDS011;51351;51.450;6.614;2024-03-06T03:12:49;31.35;;;17.35;;
64871;SDS011;51351;51.450;6.614;2024-03-06T03:15:15;28.52;;;17.52;;
64871;SDS011;51351;51.450;6.614;2024-03-06T03:17:41;22.63;;;16.73;;
64871;SDS011;51351;51.450;6.614;2024-03-06T03:20:06;24.42;;;16.35;;
64871;SDS011;51351;51.450;6.614;2024-03-06T03:22:39;28.30;;;16.95;;
64871;SDS011;51351;51.450;6.614;2024-03-06T03:25:08;26.55;;;17.05;;
64871;SDS011;51351;51.450;6.614;2024-03-06T03:27:33;23.70;;;14.80;;
64871;SDS011;51351;51.450;6.614;2024-03-06T03:29:58;22.48;;;14.15;;
64871;SDS011;51351;51.450;6.614;2024-03-06T03:32:24;26.23;;;17.00;;
64871;SDS011;51351;51.450;6.614;2024-03-06T03:34:49;29.75;;;17.63;;
64871;SDS011;51351;51.450;6.614;2024-03-06T03:37:14;29.57;;;14.97;;
64871;SDS011;51351;51.450;6.614;2024-03-06T03:39:40;19.92;;;16.67;;
64871;SDS011;51351;51.450;6.614;2024-03-06T03:42:07;26.92;;;17.33;;
64871;SDS011;51351;51.450;6.614;2024-03-06T03:44:32;22.33;;;14.35;;
64871;SDS011;51351;51.450;6.614;2024-03-06T03:46:58;23.70;;;15.43;;
64871;SDS011;51351;51.450;6.614;2024-03-06T03:49:23;26.17;;;16.35;;
64871;SDS011;51351;51.450;6.614;2024-03-06T03:51:49;28.90;;;15.25;;
64871;SDS011;51351;51.450;6.614;2024-03-06T03:54:14;25.40;;;17.35;;
64871;SDS011;51351;51.450;6.614;2024-03-06T03:56:39;27.73;;;14.85;;
64871;SDS011;51351;51.450;6.614;2024-03-06T03:59:05;27.67;;;16.50;;
64871;SDS011;51351;51.450;6.614;2024-03-06T04:01:30;27.23;;;17.85;;
64871;SDS011;51351;51.450;6.614;2024-03-06T04:03:56;25.83;;;15.50;;
64871;SDS011;51351;51.450;6.614;2024-03-06T04:06:21;28.45;;;17.38;;
64871;SDS011;51351;51.450;6.614;2024-03-06T04:08:46;29.08;;;17.98;;
64871;SDS011;51351;51.450;6.614;2024-03-06T04:11:12;24.40;;;16.15;;
64871;SDS011;51351;51.450;6.614;2024-03-06T04:13:37;27.63;;;16.55;;
64871;SDS011;51351;51.450;6.614;2024-03-06T04:16:03;26.15;;;15.82;;
64871;SDS011;51351;51.450;6.614;2024-03-06T04:18:29;28.30;;;16.73;;
64871;SDS011;51351;51.450;6.614;2024-03-06T04:20:54;28.20;;;15.98;;
64871;SDS011;51351;51.450;6.614;2024-03-06T04:23:20;29.05;;;18.15;;
64871;SDS011;51351;51.450;6.614;2024-03-06T04:25:45;27.48;;;17.50;;
64871;SDS011;51351;51.450;6.614;2024-03-06T04:28:10;28.70;;;16.50;;
64871;SDS011;51351;51.450;6.614;2024-03-06T04:30:36;29.75;;;16.23;;
64871;SDS011;51351;51.450;6.614;2024-03-06T04:33:01;30.10;;;17.60;;
64871;SDS011;51351;51.450;6.614;2024-03-06T04:35:26;29.73;;;18.00;;
64871;SDS011;51351;51.450;6.614;2024-03-06T04:37:52;25.88;;;16.83;;
64871;SDS011;51351;51.450;6.614;2024-03-06T04:40:17;25.63;;;16.70;;
64871;SDS011;51351;51.450;6.614;2024-03-06T04:42:48;25.63;;;14.95;;
64871;SDS011;51351;51.450;6.614;2024-03-06T04:45:16;29.95;;;17.50;;
64871;SDS011;51351;51.450;6.614;2024-03-06T04:47:42;29.02;;;19.45;;
64871;SDS011;51351;51.450;6.614;2024-03-06T04:50:08;31.77;;;19.30;;
64871;SDS011;51351;51.450;6.614;2024-03-06T04:52:34;27.55;;;17.98;;
64871;SDS011;51351;51.450;6.614;2024-03-06T04:55:00;25.85;;;15.43;;
64871;SDS011;51351;51.450;6.614;2024-03-06T04:57:25;26.83;;;17.52;;
64871;SDS011;51351;51.450;6.614;2024-03-06T04:59:51;28.00;;;17.52;;
64871;SDS011;51351;51.450;6.614;2024-03-06T05:02:17;24.85;;;16.70;;
64871;SDS011;51351;51.450;6.614;2024-03-06T05:04:42;28.20;;;16.58;;
64871;SDS011;51351;51.450;6.614;2024-03-06T05:07:08;26.70;;;15.13;;
64871;SDS011;51351;51.450;6.614;2024-03-06T05:09:33;27.97;;;15.93;;
64871;SDS011;51351;51.450;6.614;2024-03-06T05:12:00;26.02;;;16.40;;
64871;SDS011;51351;51.450;6.614;2024-03-06T05:14:25;22.85;;;13.90;;
64871;SDS011;51351;51.450;6.614;2024-03-06T05:16:51;25.02;;;16.08;;
64871;SDS011;51351;51.450;6.614;2024-03-06T05:19:16;24.33;;;15.60;;
64871;SDS011;51351;51.450;6.614;2024-03-06T05:21:41;25.47;;;16.93;;
64871;SDS011;51351;51.450;6.614;2024-03-06T05:24:07;29.58;;;18.08;;
64871;SDS011;51351;51.450;6.614;2024-03-06T05:26:32;28.23;;;16.40;;
64871;SDS011;51351;51.450;6.614;2024-03-06T05:28:58;27.38;;;16.42;;
64871;SDS011;51351;51.450;6.614;2024-03-06T05:31:23;23.90;;;15.23;;
64871;SDS011;51351;51.450;6.614;2024-03-06T05:33:49;27.98;;;16.23;;
64871;SDS011;51351;51.450;6.614;2024-03-06T05:36:15;27.87;;;17.77;;
64871;SDS011;51351;51.450;6.614;2024-03-06T05:38:40;25.30;;;15.98;;
64871;SDS011;51351;51.450;6.614;2024-03-06T05:41:06;32.03;;;16.90;;
64871;SDS011;51351;51.450;6.614;2024-03-06T05:43:31;30.65;;;18.35;;
64871;SDS011;51351;51.450;6.614;2024-03-06T05:45:56;41.27;;;18.27;;
64871;SDS011;51351;51.450;6.614;2024-03-06T05:48:22;31.27;;;18.60;;
64871;SDS011;51351;51.450;6.614;2024-03-06T05:50:49;28.92;;;16.17;;
64871;SDS011;51351;51.450;6.614;2024-03-06T05:53:14;30.73;;;18.63;;
64871;SDS011;51351;51.450;6.614;2024-03-06T05:55:39;25.80;;;16.63;;
64871;SDS011;51351;51.450;6.614;2024-03-06T05:58:05;28.05;;;15.45;;
64871;SDS011;51351;51.450;6.614;2024-03-06T06:00:30;27.60;;;16.80;;
64871;SDS011;51351;51.450;6.614;2024-03-06T06:02:56;35.63;;;18.08;;
64871;SDS011;51351;51.450;6.614;2024-03-06T06:05:21;31.15;;;17.50;;
64871;SDS011;51351;51.450;6.614;2024-03-06T06:07:48;28.88;;;16.38;;
64871;SDS011;51351;51.450;6.614;2024-03-06T06:10:13;32.45;;;18.85;;
64871;SDS011;51351;51.450;6.614;2024-03-06T06:12:38;27.20;;;16.75;;
64871;SDS011;51351;51.450;6.614;2024-03-06T06:15:04;30.85;;;15.50;;
64871;SDS011;51351;51.450;6.614;2024-03-06T06:17:30;29.67;;;18.70;;
64871;SDS011;51351;51.450;6.614;2024-03-06T06:19:55;33.03;;;19.20;;
64871;SDS011;51351;51.450;6.614;2024-03-06T06:22:20;28.13;;;18.05;;
64871;SDS011;51351;51.450;6.614;2024-03-06T06:24:46;34.78;;;20.33;;
64871;SDS011;51351;51.450;6.614;2024-03-06T06:27:13;29.17;;;17.08;;
64871;SDS011;51351;51.450;6.614;2024-03-06T06:29:39;32.15;;;19.00;;
64871;SDS011;51351;51.450;6.614;2024-03-06T06:32:04;31.52;;;18.42;;
64871;SDS011;51351;51.450;6.614;2024-03-06T06:34:29;33.78;;;18.38;;
64871;SDS011;51351;51.450;6.614;2024-03-06T06:36:56;27.45;;;16.67;;
64871;SDS011;51351;51.450;6.614;2024-03-06T06:39:22;32.75;;;18.88;;
64871;SDS011;51351;51.450;6.614;2024-03-06T06:41:47;32.20;;;17.27;;
64871;SDS011;51351;51.450;6.614;2024-03-06T06:44:12;34.80;;;18.57;;
64871;SDS011;51351;51.450;6.614;2024-03-06T06:46:38;28.65;;;17.30;;
64871;SDS011;51351;51.450;6.614;2024-03-06T06:49:04;26.50;;;17.02;;
64871;SDS011;51351;51.450;6.614;2024-03-06T06:51:29;32.42;;;20.08;;
64871;SDS011;51351;51.450;6.614;2024-03-06T06:53:54;28.13;;;17.23;;
64871;SDS011;51351;51.450;6.614;2024-03-06T06:56:20;32.30;;;20.02;;
64871;SDS011;51351;51.450;6.614;2024-03-06T06:58:49;32.88;;;17.25;;
64871;SDS011;51351;51.450;6.614;2024-03-06T07:01:14;31.80;;;19.48;;
64871;SDS011;51351;51.450;6.614;2024-03-06T07:03:41;30.38;;;17.60;;
64871;SDS011;51351;51.450;6.614;2024-03-06T07:06:07;37.28;;;21.30;;
64871;SDS011;51351;51.450;6.614;2024-03-06T07:08:32;32.45;;;18.92;;
64871;SDS011;51351;51.450;6.614;2024-03-06T07:10:57;39.58;;;18.42;;
64871;SDS011;51351;51.450;6.614;2024-03-06T07:13:23;33.00;;;18.70;;
64871;SDS011;51351;51.450;6.614;2024-03-06T07:15:48;34.10;;;19.95;;
64871;SDS011;51351;51.450;6.614;2024-03-06T07:18:13;29.90;;;16.88;;
64871;SDS011;51351;51.450;6.614;2024-03-06T07:20:39;29.02;;;17.88;;
64871;SDS011;51351;51.450;6.614;2024-03-06T07:23:04;27.80;;;15.48;;
64871;SDS011;51351;51.450;6.614;2024-03-06T07:25:30;29.48;;;17.23;;
64871;SDS011;51351;51.450;6.614;2024-03-06T07:27:55;28.85;;;17.65;;
64871;SDS011;51351;51.450;6.614;2024-03-06T07:30:20;27.92;;;17.80;;
64871;SDS011;51351;51.450;6.614;2024-03-06T07:32:47;28.95;;;17.92;;
64871;SDS011;51351;51.450;6.614;2024-03-06T07:35:12;33.88;;;17.10;;
64871;SDS011;51351;51.450;6.614;2024-03-06T07:37:37;36.28;;;22.92;;
64871;SDS011;51351;51.450;6.614;2024-03-06T07:40:03;32.88;;;19.35;;
64871;SDS011;51351;51.450;6.614;2024-03-06T07:47:20;30.80;;;17.50;;
64871;SDS011;51351;51.450;6.614;2024-03-06T07:49:45;28.67;;;16.20;;
64871;SDS011;51351;51.450;6.614;2024-03-06T07:52:11;26.33;;;15.70;;
64871;SDS011;51351;51.450;6.614;2024-03-06T07:54:37;29.55;;;19.35;;
64871;SDS011;51351;51.450;6.614;2024-03-06T07:57:04;28.25;;;15.85;;
64871;SDS011;51351;51.450;6.614;2024-03-06T07:59:30;30.58;;;18.58;;
64871;SDS011;51351;51.450;6.614;2024-03-06T08:01:55;25.67;;;16.42;;
64871;SDS011;51351;51.450;6.614;2024-03-06T08:04:21;26.08;;;16.20;;
64871;SDS011;51351;51.450;6.614;2024-03-06T08:06:46;21.02;;;14.85;;
64871;SDS011;51351;51.450;6.614;2024-03-06T08:09:12;24.10;;;14.38;;
64871;SDS011;51351;51.450;6.614;2024-03-06T08:11:37;23.85;;;14.98;;
64871;SDS011;51351;51.450;6.614;2024-03-06T08:14:02;21.42;;;14.02;;
64871;SDS011;51351;51.450;6.614;2024-03-06T08:16:28;23.00;;;14.38;;
64871;SDS011;51351;51.450;6.614;2024-03-06T08:18:54;20.02;;;13.77;;
64871;SDS011;51351;51.450;6.614;2024-03-06T08:23:45;21.97;;;14.90;;
64871;SDS011;51351;51.450;6.614;2024-03-06T08:26:12;20.58;;;14.32;;
64871;SDS011;51351;51.450;6.614;2024-03-06T08:28:37;18.25;;;15.05;;
64871;SDS011;51351;51.450;6.614;2024-03-06T08:31:03;21.42;;;13.80;;
64871;SDS011;51351;51.450;6.614;2024-03-06T08:33:28;16.25;;;13.48;;
64871;SDS011;51351;51.450;6.614;2024-03-06T08:35:53;16.92;;;12.45;;
64871;SDS011;51351;51.450;6.614;2024-03-06T08:38:19;18.05;;;12.93;;
64871;SDS011;51351;51.450;6.614;2024-03-06T08:40:45;18.20;;;13.57;;
64871;SDS011;51351;51.450;6.614;2024-03-06T08:43:13;19.55;;;15.38;;
64871;SDS011;51351;51.450;6.614;2024-03-06T08:45:40;17.00;;;13.55;;
64871;SDS011;51351;51.450;6.614;2024-03-06T08:48:06;22.08;;;13.73;;
64871;SDS011;51351;51.450;6.614;2024-03-06T08:50:31;17.42;;;12.43;;
64871;SDS011;51351;51.450;6.614;2024-03-06T08:52:57;21.15;;;13.25;;
64871;SDS011;51351;51.450;6.614;2024-03-06T08:55:22;17.63;;;13.70;;
64871;SDS011;51351;51.450;6.614;2024-03-06T08:57:48;18.08;;;12.80;;
64871;SDS011;51351;51.450;6.614;2024-03-06T09:00:15;18.95;;;14.13;;
64871;SDS011;51351;51.450;6.614;2024-03-06T09:02:42;20.20;;;13.88;;
64871;SDS011;51351;51.450;6.614;2024-03-06T09:05:07;15.55;;;13.63;;
64871;SDS011;51351;51.450;6.614;2024-03-06T09:07:35;14.23;;;10.70;;
64871;SDS011;51351;51.450;6.614;2024-03-06T09:10:11;14.27;;;12.77;;
64871;SDS011;51351;51.450;6.614;2024-03-06T09:12:38;16.30;;;12.43;;
64871;SDS011;51351;51.450;6.614;2024-03-06T09:15:03;14.57;;;11.75;;
64871;SDS011;51351;51.450;6.614;2024-03-06T09:17:29;14.93;;;12.32;;
64871;SDS011;51351;51.450;6.614;2024-03-06T09:19:54;13.10;;;11.73;;
64871;SDS011;51351;51.450;6.614;2024-03-06T09:22:20;16.02;;;11.10;;
64871;SDS011;51351;51.450;6.614;2024-03-06T09:24:45;15.93;;;11.77;;
64871;SDS011;51351;51.450;6.614;2024-03-06T09:27:10;15.27;;;13.68;;
64871;SDS011;51351;51.450;6.614;2024-03-06T09:29:42;15.02;;;10.75;;
64871;SDS011;51351;51.450;6.614;2024-03-06T09:32:08;14.38;;;10.07;;
64871;SDS011;51351;51.450;6.614;2024-03-06T09:34:33;12.75;;;10.70;;
64871;SDS011;51351;51.450;6.614;2024-03-06T09:36:58;11.93;;;9.48;;
64871;SDS011;51351;51.450;6.614;2024-03-06T09:39:24;17.95;;;10.15;;
64871;SDS011;51351;51.450;6.614;2024-03-06T09:41:49;15.82;;;9.18;;
64871;SDS011;51351;51.450;6.614;2024-03-06T09:44:15;14.70;;;10.52;;
64871;SDS011;51351;51.450;6.614;2024-03-06T09:46:42;13.45;;;10.90;;
64871;SDS011;51351;51.450;6.614;2024-03-06T09:49:07;14.65;;;11.15;;
64871;SDS011;51351;51.450;6.614;2024-03-06T09:51:34;15.52;;;11.80;;
64871;SDS011;51351;51.450;6.614;2024-03-06T09:54:00;13.73;;;11.77;;
64871;SDS011;51351;51.450;6.614;2024-03-06T09:56:25;16.42;;;11.57;;
64871;SDS011;51351;51.450;6.614;2024-03-06T09:58:51;13.32;;;10.85;;
64871;SDS011;51351;51.450;6.614;2024-03-06T10:01:19;13.40;;;12.02;;
64871;SDS011;51351;51.450;6.614;2024-03-06T10:03:44;13.95;;;12.48;;
64871;SDS011;51351;51.450;6.614;2024-03-06T10:06:11;13.27;;;11.55;;
64871;SDS011;51351;51.450;6.614;2024-03-06T10:08:36;16.42;;;12.68;;
64871;SDS011;51351;51.450;6.614;2024-03-06T10:11:03;17.20;;;11.88;;
64871;SDS011;51351;51.450;6.614;2024-03-06T10:13:28;15.57;;;12.38;;
64871;SDS011;51351;51.450;6.614;2024-03-06T10:16:01;15.60;;;12.23;;
64871;SDS011;51351;51.450;6.614;2024-03-06T10:18:28;16.42;;;12.77;;
64871;SDS011;51351;51.450;6.614;2024-03-06T10:20:54;14.88;;;12.25;;
64871;SDS011;51351;51.450;6.614;2024-03-06T10:23:19;16.67;;;11.85;;
64871;SDS011;51351;51.450;6.614;2024-03-06T10:25:44;17.83;;;12.02;;
64871;SDS011;51351;51.450;6.614;2024-03-06T10:28:11;15.15;;;12.63;;
64871;SDS011;51351;51.450;6.614;2024-03-06T10:30:37;18.13;;;13.40;;
64871;SDS011;51351;51.450;6.614;2024-03-06T10:33:07;18.70;;;14.18;;
64871;SDS011;51351;51.450;6.614;2024-03-06T10:35:33;20.98;;;15.18;;
64871;SDS011;51351;51.450;6.614;2024-03-06T10:38:00;16.05;;;12.60;;
64871;SDS011;51351;51.450;6.614;2024-03-06T10:40:26;19.30;;;14.02;;
64871;SDS011;51351;51.450;6.614;2024-03-06T10:42:55;21.27;;;15.57;;
64871;SDS011;51351;51.450;6.614;2024-03-06T10:45:20;29.35;;;17.52;;
64871;SDS011;51351;51.450;6.614;2024-03-06T10:47:48;24.30;;;17.58;;
64871;SDS011;51351;51.450;6.614;2024-03-06T10:50:15;27.52;;;18.33;;
64871;SDS011;51351;51.450;6.614;2024-03-06T10:52:40;26.52;;;18.98;;
64871;SDS011;51351;51.450;6.614;2024-03-06T10:55:07;27.67;;;19.65;;
64871;SDS011;51351;51.450;6.614;2024-03-06T10:57:34;27.00;;;20.15;;
64871;SDS011;51351;51.450;6.614;2024-03-06T11:00:00;27.08;;;19.30;;
64871;SDS011;51351;51.450;6.614;2024-03-06T11:04:52;31.47;;;18.83;;
64871;SDS011;51351;51.450;6.614;2024-03-06T11:07:17;28.85;;;19.52;;
64871;SDS011;51351;51.450;6.614;2024-03-06T11:09:42;31.48;;;21.17;;
64871;SDS011;51351;51.450;6.614;2024-03-06T11:12:08;28.90;;;19.65;;
64871;SDS011;51351;51.450;6.614;2024-03-06T11:14:37;30.02;;;21.27;;
64871;SDS011;51351;51.450;6.614;2024-03-06T11:17:04;29.42;;;20.05;;
64871;SDS011;51351;51.450;6.614;2024-03-06T11:19:30;29.90;;;20.85;;
64871;SDS011;51351;51.450;6.614;2024-03-06T11:21:56;30.50;;;20.52;;
64871;SDS011;51351;51.450;6.614;2024-03-06T11:24:43;30.60;;;20.50;;
64871;SDS011;51351;51.450;6.614;2024-03-06T11:27:07;30.83;;;19.80;;
64871;SDS011;51351;51.450;6.614;2024-03-06T11:32:16;31.60;;;20.33;;
64871;SDS011;51351;51.450;6.614;2024-03-06T11:34:42;34.22;;;21.42;;
64871;SDS011;51351;51.450;6.614;2024-03-06T11:37:07;35.35;;;21.55;;
64871;SDS011;51351;51.450;6.614;2024-03-06T11:39:38;29.42;;;18.58;;
64871;SDS011;51351;51.450;6.614;2024-03-06T11:42:04;35.47;;;22.23;;
64871;SDS011;51351;51.450;6.614;2024-03-06T11:44:33;36.75;;;22.67;;
64871;SDS011;51351;51.450;6.614;2024-03-06T11:47:05;37.53;;;23.48;;
64871;SDS011;51351;51.450;6.614;2024-03-06T11:49:33;36.83;;;20.98;;
64871;SDS011;51351;51.450;6.614;2024-03-06T11:52:03;42.08;;;24.20;;
64871;SDS011;51351;51.450;6.614;2024-03-06T11:54:30;40.45;;;23.65;;
64871;SDS011;51351;51.450;6.614;2024-03-06T11:56:56;36.97;;;21.08;;
64871;SDS011;51351;51.450;6.614;2024-03-06T12:01:48;38.22;;;21.85;;
64871;SDS011;51351;51.450;6.614;2024-03-06T12:04:13;36.58;;;20.63;;
64871;SDS011;51351;51.450;6.614;2024-03-06T12:06:39;32.42;;;21.05;;
64871;SDS011;51351;51.450;6.614;2024-03-06T12:09:04;35.83;;;20.13;;
64871;SDS011;51351;51.450;6.614;2024-03-06T12:11:29;38.00;;;22.98;;
64871;SDS011;51351;51.450;6.614;2024-03-06T12:16:21;30.95;;;20.98;;
64871;SDS011;51351;51.450;6.614;2024-03-06T12:18:52;24.17;;;16.13;;
64871;SDS011;51351;51.450;6.614;2024-03-06T12:21:18;24.73;;;15.15;;
64871;SDS011;51351;51.450;6.614;2024-03-06T12:23:44;25.35;;;16.45;;
64871;SDS011;51351;51.450;6.614;2024-03-06T12:26:09;30.90;;;17.70;;
64871;SDS011;51351;51.450;6.614;2024-03-06T12:28:39;32.13;;;18.40;;
64871;SDS011;51351;51.450;6.614;2024-03-06T12:31:05;28.50;;;16.73;;
64871;SDS011;51351;51.450;6.614;2024-03-06T12:33:30;25.00;;;17.38;;
64871;SDS011;51351;51.450;6.614;2024-03-06T12:36:08;27.83;;;15.55;;
64871;SDS011;51351;51.450;6.614;2024-03-06T12:38:35;25.88;;;17.13;;
64871;SDS011;51351;51.450;6.614;2024-03-06T12:41:01;23.17;;;16.13;;
64871;SDS011;51351;51.450;6.614;2024-03-06T12:43:26;28.83;;;17.20;;
64871;SDS011;51351;51.450;6.614;2024-03-06T12:45:53;26.55;;;17.70;;
64871;SDS011;51351;51.450;6.614;2024-03-06T12:48:20;27.15;;;15.27;;
64871;SDS011;51351;51.450;6.614;2024-03-06T12:53:19;25.20;;;15.30;;
64871;SDS011;51351;51.450;6.614;2024-03-06T12:55:45;32.25;;;18.02;;
64871;SDS011;51351;51.450;6.614;2024-03-06T12:58:13;29.45;;;20.65;;
64871;SDS011;51351;51.450;6.614;2024-03-06T13:00:38;30.02;;;19.10;;
64871;SDS011;51351;51.450;6.614;2024-03-06T13:03:05;29.05;;;17.58;;
64871;SDS011;51351;51.450;6.614;2024-03-06T13:05:30;27.00;;;18.10;;
64871;SDS011;51351;51.450;6.614;2024-03-06T13:07:59;23.50;;;15.27;;
64871;SDS011;51351;51.450;6.614;2024-03-06T13:10:25;29.48;;;17.35;;
64871;SDS011;51351;51.450;6.614;2024-03-06T13:12:50;27.48;;;17.05;;
64871;SDS011;51351;51.450;6.614;2024-03-06T13:15:15;30.60;;;20.05;;
64871;SDS011;51351;51.450;6.614;2024-03-06T13:17:41;31.38;;;19.63;;
64871;SDS011;51351;51.450;6.614;2024-03-06T13:20:09;38.67;;;21.67;;
64871;SDS011;51351;51.450;6.614;2024-03-06T13:22:36;37.47;;;24.75;;
64871;SDS011;51351;51.450;6.614;2024-03-06T13:25:02;38.05;;;21.50;;
64871;SDS011;51351;51.450;6.614;2024-03-06T13:27:27;39.53;;;23.25;;
64871;SDS011;51351;51.450;6.614;2024-03-06T13:29:52;39.60;;;23.27;;
64871;SDS011;51351;51.450;6.614;2024-03-06T13:32:18;34.05;;;20.90;;
64871;SDS011;51351;51.450;6.614;2024-03-06T13:34:43;33.50;;;18.90;;
64871;SDS011;51351;51.450;6.614;2024-03-06T13:37:09;32.00;;;19.73;;
64871;SDS011;51351;51.450;6.614;2024-03-06T13:39:35;29.85;;;21.05;;
64871;SDS011;51351;51.450;6.614;2024-03-06T13:42:00;28.95;;;20.00;;
64871;SDS011;51351;51.450;6.614;2024-03-06T13:44:26;33.08;;;20.38;;
64871;SDS011;51351;51.450;6.614;2024-03-06T13:46:51;30.23;;;20.70;;
64871;SDS011;51351;51.450;6.614;2024-03-06T13:52:01;32.67;;;19.63;;
64871;SDS011;51351;51.450;6.614;2024-03-06T13:54:27;31.15;;;19.00;;
64871;SDS011;51351;51.450;6.614;2024-03-06T13:56:52;39.58;;;23.52;;
64871;SDS011;51351;51.450;6.614;2024-03-06T13:59:21;35.03;;;21.38;;
64871;SDS011;51351;51.450;6.614;2024-03-06T14:01:46;31.50;;;19.60;;
64871;SDS011;51351;51.450;6.614;2024-03-06T14:04:14;26.27;;;16.33;;
64871;SDS011;51351;51.450;6.614;2024-03-06T14:06:39;27.88;;;18.65;;
64871;SDS011;51351;51.450;6.614;2024-03-06T14:09:04;30.58;;;19.02;;
64871;SDS011;51351;51.450;6.614;2024-03-06T14:11:30;28.35;;;18.35;;
64871;SDS011;51351;51.450;6.614;2024-03-06T14:13:55;29.23;;;17.25;;
64871;SDS011;51351;51.450;6.614;2024-03-06T14:16:20;25.70;;;16.73;;
64871;SDS011;51351;51.450;6.614;2024-03-06T14:18:46;25.73;;;17.08;;
64871;SDS011;51351;51.450;6.614;2024-03-06T14:21:11;29.08;;;17.20;;
64871;SDS011;51351;51.450;6.614;2024-03-06T14:23:37;24.17;;;15.93;;
64871;SDS011;51351;51.450;6.614;2024-03-06T14:26:03;28.23;;;15.55;;
64871;SDS011;51351;51.450;6.614;2024-03-06T14:28:28;25.42;;;15.23;;
64871;SDS011;51351;51.450;6.614;2024-03-06T14:30:53;25.08;;;15.48;;
64871;SDS011;51351;51.450;6.614;2024-03-06T14:33:19;28.83;;;16.57;;
64871;SDS011;51351;51.450;6.614;2024-03-06T14:35:44;23.83;;;15.45;;